Archival Weather

NSFA McMurdo Sound

NSFA McMurdo Sound, Antarctica (NZCM)

Report from: Saturday, April 1, 2023 6:55 AM UTC
Current time: Monday, July 22, 2024 11:13 AM UTC

Current weather – Weather history – Daily summaries
Weather forecast

Temperature-21.3°C (-6.3°F)
Wind chill-26.2°C (-15.1°F)
Dew point-25.1°C (-13.2°F)
Winds 3 kts (1.5 m/s, 3.5 mph) East-Northeast (70°)
Visibility6.2 mi. (10 km)
Clouds Sky clear
Altimeter29.89 in.Hg (1012 mB)
Relative humidity71 %
Density altitude-4,633 ft. (-1,412 m)
Sea-level pressure101.3 kPa (1013 mB, 29.91 in.Hg)
Remarks Fully automated report
Automated weather observing station with precipitation discriminator
Flight conditions Visual Meteorological Conditions
Raw dataNZCM 010655Z AUTO 07003KT 9999 CLR M21/M25 A2989 RMK AO2 SLP129 T12131251
An error has occurred. This application may no longer respond until reloaded. Reload 🗙